Terminal Aerodrome Forecast
Issued by NWS Caribou, ME

Home | Current Version | Previous Version | Text Only | Print | Product List | Glossary On
Versions: 1 2 3 4 5 6 7 8 9 10 11 12 13 14 15 16 17 18 19
000
FTUS41 KCAR 190520
TAFBGR
TAF
KBGR 190520Z 1906/2006 11005KT 3SM -RA BR OVC007
     FM191200 VRB03KT P6SM VCSH BKN010
     FM191700 00000KT P6SM BKN015
     FM192300 17005KT P6SM VCSH BKN025=

USA.gov is the U.S. government's official web portal to all federal, state and local government web resources and services.